sensor_id;sensor_type;location;lat;lon;timestamp;P1;durP1;ratioP1;P2;durP2;ratioP2
55114;SDS011;41010;53.252;5.786;2024-01-30T00:01:31;22.42;;;13.73;;
55114;SDS011;41010;53.252;5.786;2024-01-30T00:03:58;24.92;;;14.93;;
55114;SDS011;41010;53.252;5.786;2024-01-30T00:06:25;27.30;;;14.40;;
55114;SDS011;41010;53.252;5.786;2024-01-30T00:08:53;25.63;;;13.18;;
55114;SDS011;41010;53.252;5.786;2024-01-30T00:11:20;27.38;;;14.80;;
55114;SDS011;41010;53.252;5.786;2024-01-30T00:13:48;25.67;;;13.93;;
55114;SDS011;41010;53.252;5.786;2024-01-30T00:16:22;27.00;;;14.52;;
55114;SDS011;41010;53.252;5.786;2024-01-30T00:18:50;26.60;;;15.32;;
55114;SDS011;41010;53.252;5.786;2024-01-30T00:21:17;26.30;;;14.25;;
55114;SDS011;41010;53.252;5.786;2024-01-30T00:23:44;26.13;;;14.23;;
55114;SDS011;41010;53.252;5.786;2024-01-30T00:26:11;30.35;;;14.77;;
55114;SDS011;41010;53.252;5.786;2024-01-30T00:28:40;29.77;;;16.77;;
55114;SDS011;41010;53.252;5.786;2024-01-30T00:31:08;33.47;;;16.40;;
55114;SDS011;41010;53.252;5.786;2024-01-30T00:33:37;28.13;;;15.40;;
55114;SDS011;41010;53.252;5.786;2024-01-30T00:36:04;30.60;;;16.25;;
55114;SDS011;41010;53.252;5.786;2024-01-30T00:38:32;28.63;;;16.48;;
55114;SDS011;41010;53.252;5.786;2024-01-30T00:40:59;35.58;;;16.63;;
55114;SDS011;41010;53.252;5.786;2024-01-30T00:43:27;29.10;;;16.00;;
55114;SDS011;41010;53.252;5.786;2024-01-30T00:45:57;34.67;;;16.13;;
55114;SDS011;41010;53.252;5.786;2024-01-30T00:48:25;34.28;;;15.40;;
55114;SDS011;41010;53.252;5.786;2024-01-30T00:50:53;29.85;;;15.90;;
55114;SDS011;41010;53.252;5.786;2024-01-30T00:53:20;27.83;;;16.15;;
55114;SDS011;41010;53.252;5.786;2024-01-30T00:55:47;32.90;;;16.52;;
55114;SDS011;41010;53.252;5.786;2024-01-30T00:58:14;29.02;;;16.48;;
55114;SDS011;41010;53.252;5.786;2024-01-30T01:00:44;30.33;;;15.60;;
55114;SDS011;41010;53.252;5.786;2024-01-30T01:03:11;29.98;;;16.10;;
55114;SDS011;41010;53.252;5.786;2024-01-30T01:05:40;34.60;;;16.33;;
55114;SDS011;41010;53.252;5.786;2024-01-30T01:08:07;25.02;;;14.68;;
55114;SDS011;41010;53.252;5.786;2024-01-30T01:10:35;30.80;;;15.27;;
55114;SDS011;41010;53.252;5.786;2024-01-30T01:13:02;31.08;;;15.95;;
55114;SDS011;41010;53.252;5.786;2024-01-30T01:15:29;27.92;;;15.10;;
55114;SDS011;41010;53.252;5.786;2024-01-30T01:17:56;29.27;;;15.75;;
55114;SDS011;41010;53.252;5.786;2024-01-30T01:20:24;32.15;;;15.95;;
55114;SDS011;41010;53.252;5.786;2024-01-30T01:22:52;32.33;;;16.25;;
55114;SDS011;41010;53.252;5.786;2024-01-30T01:25:19;31.25;;;16.80;;
55114;SDS011;41010;53.252;5.786;2024-01-30T01:27:47;27.90;;;15.98;;
55114;SDS011;41010;53.252;5.786;2024-01-30T01:30:17;28.05;;;16.98;;
55114;SDS011;41010;53.252;5.786;2024-01-30T01:32:47;28.77;;;15.77;;
55114;SDS011;41010;53.252;5.786;2024-01-30T01:35:20;29.73;;;15.82;;
55114;SDS011;41010;53.252;5.786;2024-01-30T01:37:47;28.30;;;15.80;;
55114;SDS011;41010;53.252;5.786;2024-01-30T01:40:22;27.65;;;15.70;;
55114;SDS011;41010;53.252;5.786;2024-01-30T01:42:49;27.42;;;14.90;;
55114;SDS011;41010;53.252;5.786;2024-01-30T01:45:17;33.17;;;16.15;;
55114;SDS011;41010;53.252;5.786;2024-01-30T01:47:44;28.08;;;15.45;;
55114;SDS011;41010;53.252;5.786;2024-01-30T01:50:12;31.20;;;17.13;;
55114;SDS011;41010;53.252;5.786;2024-01-30T01:52:40;29.98;;;16.00;;
55114;SDS011;41010;53.252;5.786;2024-01-30T01:55:08;26.85;;;15.70;;
55114;SDS011;41010;53.252;5.786;2024-01-30T01:57:36;32.42;;;16.52;;
55114;SDS011;41010;53.252;5.786;2024-01-30T02:00:04;32.40;;;16.30;;
55114;SDS011;41010;53.252;5.786;2024-01-30T02:02:32;28.77;;;17.02;;
55114;SDS011;41010;53.252;5.786;2024-01-30T02:05:02;33.72;;;16.77;;
55114;SDS011;41010;53.252;5.786;2024-01-30T02:07:30;33.10;;;16.00;;
55114;SDS011;41010;53.252;5.786;2024-01-30T02:09:57;28.13;;;16.15;;
55114;SDS011;41010;53.252;5.786;2024-01-30T02:12:24;28.88;;;15.85;;
55114;SDS011;41010;53.252;5.786;2024-01-30T02:14:53;28.15;;;16.70;;
55114;SDS011;41010;53.252;5.786;2024-01-30T02:17:20;28.33;;;16.02;;
55114;SDS011;41010;53.252;5.786;2024-01-30T02:19:48;29.63;;;15.40;;
55114;SDS011;41010;53.252;5.786;2024-01-30T02:22:17;26.98;;;15.50;;
55114;SDS011;41010;53.252;5.786;2024-01-30T02:24:44;27.60;;;15.02;;
55114;SDS011;41010;53.252;5.786;2024-01-30T02:27:11;31.45;;;16.27;;
55114;SDS011;41010;53.252;5.786;2024-01-30T02:29:39;26.77;;;14.48;;
55114;SDS011;41010;53.252;5.786;2024-01-30T02:32:06;27.98;;;14.98;;
55114;SDS011;41010;53.252;5.786;2024-01-30T02:34:33;28.00;;;15.18;;
55114;SDS011;41010;53.252;5.786;2024-01-30T02:37:01;26.38;;;15.07;;
55114;SDS011;41010;53.252;5.786;2024-01-30T02:39:29;26.52;;;15.00;;
55114;SDS011;41010;53.252;5.786;2024-01-30T02:41:56;28.27;;;15.27;;
55114;SDS011;41010;53.252;5.786;2024-01-30T02:44:24;26.00;;;15.80;;
55114;SDS011;41010;53.252;5.786;2024-01-30T02:46:51;27.60;;;15.57;;
55114;SDS011;41010;53.252;5.786;2024-01-30T02:49:19;28.38;;;15.43;;
55114;SDS011;41010;53.252;5.786;2024-01-30T02:51:46;24.92;;;14.60;;
55114;SDS011;41010;53.252;5.786;2024-01-30T02:54:14;24.55;;;14.68;;
55114;SDS011;41010;53.252;5.786;2024-01-30T02:56:43;23.42;;;14.75;;
55114;SDS011;41010;53.252;5.786;2024-01-30T02:59:10;25.83;;;14.13;;
55114;SDS011;41010;53.252;5.786;2024-01-30T03:01:43;27.83;;;15.18;;
55114;SDS011;41010;53.252;5.786;2024-01-30T03:04:11;26.77;;;14.23;;
55114;SDS011;41010;53.252;5.786;2024-01-30T03:06:38;25.02;;;14.40;;
55114;SDS011;41010;53.252;5.786;2024-01-30T03:09:06;23.27;;;14.65;;
55114;SDS011;41010;53.252;5.786;2024-01-30T03:11:32;26.80;;;14.43;;
55114;SDS011;41010;53.252;5.786;2024-01-30T03:14:01;28.20;;;14.40;;
55114;SDS011;41010;53.252;5.786;2024-01-30T03:16:29;24.63;;;13.60;;
55114;SDS011;41010;53.252;5.786;2024-01-30T03:18:56;27.23;;;14.30;;
55114;SDS011;41010;53.252;5.786;2024-01-30T03:21:23;25.15;;;13.35;;
55114;SDS011;41010;53.252;5.786;2024-01-30T03:23:51;24.48;;;13.65;;
55114;SDS011;41010;53.252;5.786;2024-01-30T03:26:18;21.48;;;13.38;;
55114;SDS011;41010;53.252;5.786;2024-01-30T03:28:45;21.83;;;12.80;;
55114;SDS011;41010;53.252;5.786;2024-01-30T03:31:15;25.48;;;13.10;;
55114;SDS011;41010;53.252;5.786;2024-01-30T03:33:42;22.80;;;12.50;;
55114;SDS011;41010;53.252;5.786;2024-01-30T03:36:10;23.83;;;13.20;;
55114;SDS011;41010;53.252;5.786;2024-01-30T03:38:38;25.63;;;13.88;;
55114;SDS011;41010;53.252;5.786;2024-01-30T03:41:07;24.15;;;13.55;;
55114;SDS011;41010;53.252;5.786;2024-01-30T03:43:34;22.92;;;13.48;;
55114;SDS011;41010;53.252;5.786;2024-01-30T03:46:02;23.38;;;13.35;;
55114;SDS011;41010;53.252;5.786;2024-01-30T03:48:31;24.20;;;14.65;;
55114;SDS011;41010;53.252;5.786;2024-01-30T03:50:58;23.75;;;14.57;;
55114;SDS011;41010;53.252;5.786;2024-01-30T03:53:25;25.20;;;13.73;;
55114;SDS011;41010;53.252;5.786;2024-01-30T03:55:52;32.17;;;14.60;;
55114;SDS011;41010;53.252;5.786;2024-01-30T03:58:20;24.83;;;14.40;;
55114;SDS011;41010;53.252;5.786;2024-01-30T04:00:47;26.00;;;14.20;;
55114;SDS011;41010;53.252;5.786;2024-01-30T04:03:14;24.90;;;14.68;;
55114;SDS011;41010;53.252;5.786;2024-01-30T04:05:43;26.70;;;13.85;;
55114;SDS011;41010;53.252;5.786;2024-01-30T04:08:10;27.15;;;14.77;;
55114;SDS011;41010;53.252;5.786;2024-01-30T04:10:38;25.20;;;13.60;;
55114;SDS011;41010;53.252;5.786;2024-01-30T04:13:05;23.92;;;13.27;;
55114;SDS011;41010;53.252;5.786;2024-01-30T04:15:32;29.40;;;14.23;;
55114;SDS011;41010;53.252;5.786;2024-01-30T04:18:00;24.38;;;13.57;;
55114;SDS011;41010;53.252;5.786;2024-01-30T04:20:27;24.45;;;13.50;;
55114;SDS011;41010;53.252;5.786;2024-01-30T04:22:56;25.00;;;12.85;;
55114;SDS011;41010;53.252;5.786;2024-01-30T04:25:23;22.98;;;12.73;;
55114;SDS011;41010;53.252;5.786;2024-01-30T04:27:50;20.20;;;12.00;;
55114;SDS011;41010;53.252;5.786;2024-01-30T04:30:17;27.05;;;12.75;;
55114;SDS011;41010;53.252;5.786;2024-01-30T04:32:45;21.15;;;12.63;;
55114;SDS011;41010;53.252;5.786;2024-01-30T04:35:12;23.38;;;13.52;;
55114;SDS011;41010;53.252;5.786;2024-01-30T04:37:39;25.98;;;12.75;;
55114;SDS011;41010;53.252;5.786;2024-01-30T04:40:08;19.08;;;12.10;;
55114;SDS011;41010;53.252;5.786;2024-01-30T04:42:36;27.65;;;12.40;;
55114;SDS011;41010;53.252;5.786;2024-01-30T04:45:05;22.02;;;11.95;;
55114;SDS011;41010;53.252;5.786;2024-01-30T04:47:32;22.45;;;12.15;;
55114;SDS011;41010;53.252;5.786;2024-01-30T04:50:00;23.50;;;12.27;;
55114;SDS011;41010;53.252;5.786;2024-01-30T04:52:29;19.67;;;11.82;;
55114;SDS011;41010;53.252;5.786;2024-01-30T04:54:57;22.75;;;12.10;;
55114;SDS011;41010;53.252;5.786;2024-01-30T04:57:25;22.15;;;11.68;;
55114;SDS011;41010;53.252;5.786;2024-01-30T04:59:53;21.90;;;12.23;;
55114;SDS011;41010;53.252;5.786;2024-01-30T05:02:20;21.05;;;12.10;;
55114;SDS011;41010;53.252;5.786;2024-01-30T05:04:47;22.25;;;11.45;;
55114;SDS011;41010;53.252;5.786;2024-01-30T05:07:14;22.67;;;11.90;;
55114;SDS011;41010;53.252;5.786;2024-01-30T05:09:42;23.00;;;11.95;;
55114;SDS011;41010;53.252;5.786;2024-01-30T05:12:09;18.73;;;10.80;;
55114;SDS011;41010;53.252;5.786;2024-01-30T05:14:38;18.63;;;11.32;;
55114;SDS011;41010;53.252;5.786;2024-01-30T05:17:05;21.50;;;11.65;;
55114;SDS011;41010;53.252;5.786;2024-01-30T05:19:33;22.30;;;12.00;;
55114;SDS011;41010;53.252;5.786;2024-01-30T05:22:00;19.67;;;11.55;;
55114;SDS011;41010;53.252;5.786;2024-01-30T05:24:27;18.70;;;10.48;;
55114;SDS011;41010;53.252;5.786;2024-01-30T05:26:54;18.73;;;11.73;;
55114;SDS011;41010;53.252;5.786;2024-01-30T05:29:22;18.73;;;10.80;;
55114;SDS011;41010;53.252;5.786;2024-01-30T05:31:51;25.35;;;10.98;;
55114;SDS011;41010;53.252;5.786;2024-01-30T05:34:18;19.65;;;10.73;;
55114;SDS011;41010;53.252;5.786;2024-01-30T05:36:45;22.00;;;11.10;;
55114;SDS011;41010;53.252;5.786;2024-01-30T05:39:12;22.17;;;11.18;;
55114;SDS011;41010;53.252;5.786;2024-01-30T05:41:40;21.95;;;11.85;;
55114;SDS011;41010;53.252;5.786;2024-01-30T05:44:07;18.10;;;10.70;;
55114;SDS011;41010;53.252;5.786;2024-01-30T05:46:35;21.73;;;10.85;;
55114;SDS011;41010;53.252;5.786;2024-01-30T05:49:06;17.95;;;10.80;;
55114;SDS011;41010;53.252;5.786;2024-01-30T05:51:33;21.35;;;11.02;;
55114;SDS011;41010;53.252;5.786;2024-01-30T05:54:01;20.13;;;10.90;;
55114;SDS011;41010;53.252;5.786;2024-01-30T05:56:28;20.63;;;10.18;;
55114;SDS011;41010;53.252;5.786;2024-01-30T05:58:55;17.08;;;10.50;;
55114;SDS011;41010;53.252;5.786;2024-01-30T06:01:23;17.40;;;9.85;;
55114;SDS011;41010;53.252;5.786;2024-01-30T06:03:50;17.38;;;10.55;;
55114;SDS011;41010;53.252;5.786;2024-01-30T06:06:19;17.48;;;10.40;;
55114;SDS011;41010;53.252;5.786;2024-01-30T06:08:46;18.33;;;10.68;;
55114;SDS011;41010;53.252;5.786;2024-01-30T06:11:13;19.30;;;10.88;;
55114;SDS011;41010;53.252;5.786;2024-01-30T06:13:41;21.52;;;10.73;;
55114;SDS011;41010;53.252;5.786;2024-01-30T06:16:09;24.30;;;11.40;;
55114;SDS011;41010;53.252;5.786;2024-01-30T06:18:37;18.40;;;10.57;;
55114;SDS011;41010;53.252;5.786;2024-01-30T06:21:04;22.85;;;10.80;;
55114;SDS011;41010;53.252;5.786;2024-01-30T06:23:33;18.63;;;10.27;;
55114;SDS011;41010;53.252;5.786;2024-01-30T06:26:00;24.33;;;10.48;;
55114;SDS011;41010;53.252;5.786;2024-01-30T06:28:28;20.92;;;10.43;;
55114;SDS011;41010;53.252;5.786;2024-01-30T06:30:55;22.48;;;10.80;;
55114;SDS011;41010;53.252;5.786;2024-01-30T06:33:22;22.13;;;10.20;;
55114;SDS011;41010;53.252;5.786;2024-01-30T06:35:49;19.33;;;11.02;;
55114;SDS011;41010;53.252;5.786;2024-01-30T06:38:17;19.85;;;10.25;;
55114;SDS011;41010;53.252;5.786;2024-01-30T06:40:45;17.05;;;9.65;;
55114;SDS011;41010;53.252;5.786;2024-01-30T06:43:13;22.45;;;11.23;;
55114;SDS011;41010;53.252;5.786;2024-01-30T06:45:40;19.25;;;10.57;;
55114;SDS011;41010;53.252;5.786;2024-01-30T06:48:08;21.05;;;10.10;;
55114;SDS011;41010;53.252;5.786;2024-01-30T06:50:35;18.35;;;9.98;;
55114;SDS011;41010;53.252;5.786;2024-01-30T06:53:03;19.70;;;10.75;;
55114;SDS011;41010;53.252;5.786;2024-01-30T06:55:30;17.42;;;10.40;;
55114;SDS011;41010;53.252;5.786;2024-01-30T06:57:59;17.48;;;10.85;;
55114;SDS011;41010;53.252;5.786;2024-01-30T07:00:26;18.85;;;9.93;;
55114;SDS011;41010;53.252;5.786;2024-01-30T07:02:53;20.02;;;10.88;;
55114;SDS011;41010;53.252;5.786;2024-01-30T07:05:20;15.57;;;10.15;;
55114;SDS011;41010;53.252;5.786;2024-01-30T07:07:48;17.25;;;9.95;;
55114;SDS011;41010;53.252;5.786;2024-01-30T07:10:21;21.25;;;10.10;;
55114;SDS011;41010;53.252;5.786;2024-01-30T07:12:49;19.92;;;10.38;;
55114;SDS011;41010;53.252;5.786;2024-01-30T07:15:18;25.55;;;10.52;;
55114;SDS011;41010;53.252;5.786;2024-01-30T07:17:46;20.35;;;10.55;;
55114;SDS011;41010;53.252;5.786;2024-01-30T07:20:13;21.27;;;9.82;;
55114;SDS011;41010;53.252;5.786;2024-01-30T07:22:40;16.95;;;9.85;;
55114;SDS011;41010;53.252;5.786;2024-01-30T07:25:07;23.40;;;10.98;;
55114;SDS011;41010;53.252;5.786;2024-01-30T07:27:35;20.75;;;11.23;;
55114;SDS011;41010;53.252;5.786;2024-01-30T07:30:03;19.20;;;10.48;;
55114;SDS011;41010;53.252;5.786;2024-01-30T07:32:31;17.48;;;10.15;;
55114;SDS011;41010;53.252;5.786;2024-01-30T07:34:59;19.15;;;11.23;;
55114;SDS011;41010;53.252;5.786;2024-01-30T07:37:26;18.35;;;10.23;;
55114;SDS011;41010;53.252;5.786;2024-01-30T07:39:54;19.80;;;10.43;;
55114;SDS011;41010;53.252;5.786;2024-01-30T07:42:21;20.20;;;10.57;;
55114;SDS011;41010;53.252;5.786;2024-01-30T07:44:48;17.20;;;11.25;;
55114;SDS011;41010;53.252;5.786;2024-01-30T07:47:15;19.17;;;10.27;;
55114;SDS011;41010;53.252;5.786;2024-01-30T07:49:44;20.17;;;10.88;;
55114;SDS011;41010;53.252;5.786;2024-01-30T07:52:11;16.40;;;10.63;;
55114;SDS011;41010;53.252;5.786;2024-01-30T07:54:48;18.70;;;11.10;;
55114;SDS011;41010;53.252;5.786;2024-01-30T07:57:15;17.83;;;10.93;;
55114;SDS011;41010;53.252;5.786;2024-01-30T07:59:42;20.95;;;10.50;;
55114;SDS011;41010;53.252;5.786;2024-01-30T08:02:10;18.42;;;10.60;;
55114;SDS011;41010;53.252;5.786;2024-01-30T08:04:37;21.02;;;10.85;;
55114;SDS011;41010;53.252;5.786;2024-01-30T08:07:06;19.77;;;11.20;;
55114;SDS011;41010;53.252;5.786;2024-01-30T08:09:33;20.17;;;10.82;;
55114;SDS011;41010;53.252;5.786;2024-01-30T08:12:00;19.95;;;10.77;;
55114;SDS011;41010;53.252;5.786;2024-01-30T08:14:28;21.17;;;10.60;;
55114;SDS011;41010;53.252;5.786;2024-01-30T08:16:55;16.52;;;10.00;;
55114;SDS011;41010;53.252;5.786;2024-01-30T08:19:22;20.63;;;10.32;;
55114;SDS011;41010;53.252;5.786;2024-01-30T08:21:49;17.33;;;10.52;;
55114;SDS011;41010;53.252;5.786;2024-01-30T08:24:18;19.48;;;10.25;;
55114;SDS011;41010;53.252;5.786;2024-01-30T08:26:45;24.08;;;11.10;;
55114;SDS011;41010;53.252;5.786;2024-01-30T08:29:12;18.63;;;9.57;;
55114;SDS011;41010;53.252;5.786;2024-01-30T08:31:39;17.88;;;9.52;;
55114;SDS011;41010;53.252;5.786;2024-01-30T08:34:07;17.33;;;10.13;;
55114;SDS011;41010;53.252;5.786;2024-01-30T08:36:34;16.95;;;9.75;;
55114;SDS011;41010;53.252;5.786;2024-01-30T08:39:01;24.67;;;9.85;;
55114;SDS011;41010;53.252;5.786;2024-01-30T08:41:31;17.05;;;9.57;;
55114;SDS011;41010;53.252;5.786;2024-01-30T08:43:59;19.05;;;9.88;;
55114;SDS011;41010;53.252;5.786;2024-01-30T08:46:26;19.20;;;9.38;;
55114;SDS011;41010;53.252;5.786;2024-01-30T08:48:53;19.80;;;9.32;;
55114;SDS011;41010;53.252;5.786;2024-01-30T08:51:20;15.52;;;8.93;;
55114;SDS011;41010;53.252;5.786;2024-01-30T08:53:48;21.50;;;9.68;;
55114;SDS011;41010;53.252;5.786;2024-01-30T08:56:15;18.38;;;9.57;;
55114;SDS011;41010;53.252;5.786;2024-01-30T08:58:44;20.40;;;9.57;;
55114;SDS011;41010;53.252;5.786;2024-01-30T09:01:11;15.63;;;8.98;;
55114;SDS011;41010;53.252;5.786;2024-01-30T09:03:38;19.27;;;9.30;;
55114;SDS011;41010;53.252;5.786;2024-01-30T09:06:07;18.33;;;9.65;;
55114;SDS011;41010;53.252;5.786;2024-01-30T09:08:35;19.13;;;9.15;;
55114;SDS011;41010;53.252;5.786;2024-01-30T09:11:02;16.40;;;9.05;;
55114;SDS011;41010;53.252;5.786;2024-01-30T09:13:35;17.60;;;9.75;;
55114;SDS011;41010;53.252;5.786;2024-01-30T09:16:04;15.32;;;8.63;;
55114;SDS011;41010;53.252;5.786;2024-01-30T09:18:32;17.35;;;8.77;;
55114;SDS011;41010;53.252;5.786;2024-01-30T09:20:59;23.45;;;8.98;;
55114;SDS011;41010;53.252;5.786;2024-01-30T09:23:26;17.92;;;9.00;;
55114;SDS011;41010;53.252;5.786;2024-01-30T09:25:54;19.50;;;9.63;;
55114;SDS011;41010;53.252;5.786;2024-01-30T09:28:21;18.05;;;9.52;;
55114;SDS011;41010;53.252;5.786;2024-01-30T09:30:48;20.70;;;9.02;;
55114;SDS011;41010;53.252;5.786;2024-01-30T09:33:17;17.77;;;8.60;;
55114;SDS011;41010;53.252;5.786;2024-01-30T09:35:45;17.92;;;9.43;;
55114;SDS011;41010;53.252;5.786;2024-01-30T09:38:12;15.77;;;9.65;;
55114;SDS011;41010;53.252;5.786;2024-01-30T09:40:39;15.48;;;8.88;;
55114;SDS011;41010;53.252;5.786;2024-01-30T09:43:07;20.13;;;9.38;;
55114;SDS011;41010;53.252;5.786;2024-01-30T09:45:35;20.25;;;10.75;;
55114;SDS011;41010;53.252;5.786;2024-01-30T09:48:02;19.65;;;9.60;;
55114;SDS011;41010;53.252;5.786;2024-01-30T09:50:32;20.20;;;9.60;;
55114;SDS011;41010;53.252;5.786;2024-01-30T09:53:01;17.33;;;9.00;;
55114;SDS011;41010;53.252;5.786;2024-01-30T09:55:28;17.42;;;8.93;;
55114;SDS011;41010;53.252;5.786;2024-01-30T09:57:56;19.48;;;9.77;;
55114;SDS011;41010;53.252;5.786;2024-01-30T10:00:23;22.27;;;10.02;;
55114;SDS011;41010;53.252;5.786;2024-01-30T10:02:52;20.63;;;9.55;;
55114;SDS011;41010;53.252;5.786;2024-01-30T10:05:19;22.80;;;9.55;;
55114;SDS011;41010;53.252;5.786;2024-01-30T10:07:52;22.58;;;9.20;;
55114;SDS011;41010;53.252;5.786;2024-01-30T10:10:21;16.08;;;8.52;;
55114;SDS011;41010;53.252;5.786;2024-01-30T10:12:48;22.08;;;8.00;;
55114;SDS011;41010;53.252;5.786;2024-01-30T10:15:16;15.70;;;7.70;;
55114;SDS011;41010;53.252;5.786;2024-01-30T10:17:44;17.77;;;7.30;;
55114;SDS011;41010;53.252;5.786;2024-01-30T10:20:11;17.52;;;6.85;;
55114;SDS011;41010;53.252;5.786;2024-01-30T10:22:39;20.25;;;6.85;;
55114;SDS011;41010;53.252;5.786;2024-01-30T10:25:09;15.02;;;5.63;;
55114;SDS011;41010;53.252;5.786;2024-01-30T10:27:36;19.90;;;5.32;;
55114;SDS011;41010;53.252;5.786;2024-01-30T10:30:07;14.52;;;4.88;;
55114;SDS011;41010;53.252;5.786;2024-01-30T10:32:34;20.83;;;4.60;;
55114;SDS011;41010;53.252;5.786;2024-01-30T10:35:02;20.80;;;4.45;;
55114;SDS011;41010;53.252;5.786;2024-01-30T10:37:29;17.13;;;5.18;;
55114;SDS011;41010;53.252;5.786;2024-01-30T10:39:58;13.80;;;3.60;;
55114;SDS011;41010;53.252;5.786;2024-01-30T10:42:31;16.27;;;3.30;;
55114;SDS011;41010;53.252;5.786;2024-01-30T10:45:00;10.95;;;2.45;;
55114;SDS011;41010;53.252;5.786;2024-01-30T10:47:29;16.33;;;3.17;;
55114;SDS011;41010;53.252;5.786;2024-01-30T10:49:57;10.75;;;2.20;;
55114;SDS011;41010;53.252;5.786;2024-01-30T10:52:24;10.88;;;2.42;;
55114;SDS011;41010;53.252;5.786;2024-01-30T10:54:51;14.95;;;2.50;;
55114;SDS011;41010;53.252;5.786;2024-01-30T10:57:19;13.02;;;2.58;;
55114;SDS011;41010;53.252;5.786;2024-01-30T10:59:47;14.98;;;2.63;;
55114;SDS011;41010;53.252;5.786;2024-01-30T11:02:15;19.27;;;2.67;;
55114;SDS011;41010;53.252;5.786;2024-01-30T11:04:42;14.93;;;2.75;;
55114;SDS011;41010;53.252;5.786;2024-01-30T11:07:16;12.65;;;2.45;;
55114;SDS011;41010;53.252;5.786;2024-01-30T11:09:49;12.52;;;2.33;;
55114;SDS011;41010;53.252;5.786;2024-01-30T11:12:16;9.85;;;2.03;;
55114;SDS011;41010;53.252;5.786;2024-01-30T11:14:49;9.70;;;2.08;;
55114;SDS011;41010;53.252;5.786;2024-01-30T11:17:17;13.25;;;3.47;;
55114;SDS011;41010;53.252;5.786;2024-01-30T11:19:44;8.63;;;2.20;;
55114;SDS011;41010;53.252;5.786;2024-01-30T11:22:13;12.50;;;2.17;;
55114;SDS011;41010;53.252;5.786;2024-01-30T11:24:40;16.50;;;2.17;;
55114;SDS011;41010;53.252;5.786;2024-01-30T11:27:08;11.65;;;2.08;;
55114;SDS011;41010;53.252;5.786;2024-01-30T11:29:36;11.30;;;2.10;;
55114;SDS011;41010;53.252;5.786;2024-01-30T11:32:05;13.50;;;1.80;;
55114;SDS011;41010;53.252;5.786;2024-01-30T11:34:32;10.52;;;1.83;;
55114;SDS011;41010;53.252;5.786;2024-01-30T11:37:03;13.13;;;1.80;;
55114;SDS011;41010;53.252;5.786;2024-01-30T11:39:30;10.38;;;2.35;;
55114;SDS011;41010;53.252;5.786;2024-01-30T11:41:58;10.52;;;1.92;;
55114;SDS011;41010;53.252;5.786;2024-01-30T11:44:26;8.77;;;1.88;;
55114;SDS011;41010;53.252;5.786;2024-01-30T11:46:53;8.02;;;1.65;;
55114;SDS011;41010;53.252;5.786;2024-01-30T11:49:22;8.25;;;1.95;;
55114;SDS011;41010;53.252;5.786;2024-01-30T11:51:50;11.15;;;2.03;;
55114;SDS011;41010;53.252;5.786;2024-01-30T11:54:18;8.77;;;1.70;;
55114;SDS011;41010;53.252;5.786;2024-01-30T11:56:45;11.85;;;2.38;;
55114;SDS011;41010;53.252;5.786;2024-01-30T11:59:13;10.68;;;1.95;;
55114;SDS011;41010;53.252;5.786;2024-01-30T12:01:40;10.55;;;2.40;;
55114;SDS011;41010;53.252;5.786;2024-01-30T12:04:08;9.98;;;2.28;;
55114;SDS011;41010;53.252;5.786;2024-01-30T12:06:37;7.20;;;1.70;;
55114;SDS011;41010;53.252;5.786;2024-01-30T12:09:05;9.65;;;1.80;;
55114;SDS011;41010;53.252;5.786;2024-01-30T12:11:42;10.35;;;1.73;;
55114;SDS011;41010;53.252;5.786;2024-01-30T12:14:11;7.45;;;1.75;;
55114;SDS011;41010;53.252;5.786;2024-01-30T12:16:38;7.43;;;1.70;;
55114;SDS011;41010;53.252;5.786;2024-01-30T12:19:06;8.70;;;1.13;;
55114;SDS011;41010;53.252;5.786;2024-01-30T12:21:34;7.07;;;1.60;;
55114;SDS011;41010;53.252;5.786;2024-01-30T12:24:03;16.05;;;2.05;;
55114;SDS011;41010;53.252;5.786;2024-01-30T12:26:32;7.68;;;1.85;;
55114;SDS011;41010;53.252;5.786;2024-01-30T12:28:59;8.23;;;1.58;;
55114;SDS011;41010;53.252;5.786;2024-01-30T12:31:27;10.65;;;1.90;;
55114;SDS011;41010;53.252;5.786;2024-01-30T12:33:55;7.38;;;1.83;;
55114;SDS011;41010;53.252;5.786;2024-01-30T12:36:22;9.32;;;1.50;;
55114;SDS011;41010;53.252;5.786;2024-01-30T12:38:49;6.70;;;1.30;;
55114;SDS011;41010;53.252;5.786;2024-01-30T12:41:19;8.77;;;2.00;;
55114;SDS011;41010;53.252;5.786;2024-01-30T12:43:46;6.60;;;1.40;;
55114;SDS011;41010;53.252;5.786;2024-01-30T12:46:13;7.65;;;1.45;;
55114;SDS011;41010;53.252;5.786;2024-01-30T12:48:43;8.52;;;1.48;;
55114;SDS011;41010;53.252;5.786;2024-01-30T12:51:11;7.90;;;1.55;;
55114;SDS011;41010;53.252;5.786;2024-01-30T12:53:38;9.98;;;1.15;;
55114;SDS011;41010;53.252;5.786;2024-01-30T12:56:05;5.93;;;1.52;;
55114;SDS011;41010;53.252;5.786;2024-01-30T12:58:34;9.45;;;1.38;;
55114;SDS011;41010;53.252;5.786;2024-01-30T13:01:01;6.80;;;1.17;;
55114;SDS011;41010;53.252;5.786;2024-01-30T13:03:29;10.18;;;1.60;;
55114;SDS011;41010;53.252;5.786;2024-01-30T13:05:56;6.15;;;1.40;;
55114;SDS011;41010;53.252;5.786;2024-01-30T13:08:23;7.28;;;1.80;;
55114;SDS011;41010;53.252;5.786;2024-01-30T13:10:51;8.75;;;1.52;;
55114;SDS011;41010;53.252;5.786;2024-01-30T13:13:18;4.80;;;1.25;;
55114;SDS011;41010;53.252;5.786;2024-01-30T13:15:46;8.65;;;1.40;;
55114;SDS011;41010;53.252;5.786;2024-01-30T13:18:14;5.30;;;1.38;;
55114;SDS011;41010;53.252;5.786;2024-01-30T13:20:41;4.35;;;1.45;;
55114;SDS011;41010;53.252;5.786;2024-01-30T13:23:08;5.13;;;1.20;;
55114;SDS011;41010;53.252;5.786;2024-01-30T13:25:36;6.00;;;1.20;;
55114;SDS011;41010;53.252;5.786;2024-01-30T13:28:03;4.88;;;1.10;;
55114;SDS011;41010;53.252;5.786;2024-01-30T13:30:30;4.63;;;0.93;;
55114;SDS011;41010;53.252;5.786;2024-01-30T13:32:59;5.50;;;1.30;;
55114;SDS011;41010;53.252;5.786;2024-01-30T13:35:27;6.55;;;2.20;;
55114;SDS011;41010;53.252;5.786;2024-01-30T13:37:55;3.42;;;1.45;;
55114;SDS011;41010;53.252;5.786;2024-01-30T13:40:22;10.32;;;1.50;;
55114;SDS011;41010;53.252;5.786;2024-01-30T13:42:49;6.78;;;1.50;;
55114;SDS011;41010;53.252;5.786;2024-01-30T13:45:17;6.53;;;2.00;;
55114;SDS011;41010;53.252;5.786;2024-01-30T13:47:44;8.43;;;1.70;;
55114;SDS011;41010;53.252;5.786;2024-01-30T13:50:13;9.60;;;1.50;;
55114;SDS011;41010;53.252;5.786;2024-01-30T13:52:41;4.68;;;1.38;;
55114;SDS011;41010;53.252;5.786;2024-01-30T13:55:09;6.85;;;1.70;;
55114;SDS011;41010;53.252;5.786;2024-01-30T13:57:36;7.75;;;1.80;;
55114;SDS011;41010;53.252;5.786;2024-01-30T14:00:04;7.55;;;1.60;;
55114;SDS011;41010;53.252;5.786;2024-01-30T14:02:32;6.35;;;1.70;;
55114;SDS011;41010;53.252;5.786;2024-01-30T14:04:59;10.20;;;1.70;;
55114;SDS011;41010;53.252;5.786;2024-01-30T14:07:28;6.00;;;1.80;;
55114;SDS011;41010;53.252;5.786;2024-01-30T14:09:55;4.45;;;1.60;;
55114;SDS011;41010;53.252;5.786;2024-01-30T14:12:22;6.88;;;1.80;;
55114;SDS011;41010;53.252;5.786;2024-01-30T14:14:50;7.63;;;2.70;;
55114;SDS011;41010;53.252;5.786;2024-01-30T14:17:17;5.95;;;2.00;;
55114;SDS011;41010;53.252;5.786;2024-01-30T14:19:44;12.35;;;2.20;;
55114;SDS011;41010;53.252;5.786;2024-01-30T14:22:11;7.95;;;2.00;;
55114;SDS011;41010;53.252;5.786;2024-01-30T14:24:40;6.50;;;1.73;;
55114;SDS011;41010;53.252;5.786;2024-01-30T14:27:07;8.73;;;2.10;;
55114;SDS011;41010;53.252;5.786;2024-01-30T14:29:34;6.13;;;1.80;;
55114;SDS011;41010;53.252;5.786;2024-01-30T14:32:02;12.25;;;2.33;;